TAF and METAR

METAR for Teniente R. Marsh Airport

SCRM 170300Z 12018KT 3000 BR OVC009 M04/M04 Q0981 NOSIG
Report created 17. jul 05:00
wind 18 knots from ESE (120°) visibility 3000 meters mist overcast at 900 feet Temperature -4° with dewpoint at -4° (Humidity 100.00%) Pressure 981 hPa no significant weather change expected the next couple of hours
No TAF available for Teniente R. Marsh Airport